sensor_id;sensor_type;location;lat;lon;timestamp;temperature;humidity
47765;DHT22;33529;49.242;8.670;2022-12-08T00:01:12;2.10;99.90
47765;DHT22;33529;49.242;8.670;2022-12-08T00:03:40;2.10;99.90
47765;DHT22;33529;49.242;8.670;2022-12-08T00:06:34;2.20;99.90
47765;DHT22;33529;49.242;8.670;2022-12-08T00:09:38;2.20;99.90
47765;DHT22;33529;49.242;8.670;2022-12-08T00:12:07;2.10;99.90
47765;DHT22;33529;49.242;8.670;2022-12-08T00:14:43;2.20;99.90
47765;DHT22;33529;49.242;8.670;2022-12-08T00:17:12;2.10;99.90
47765;DHT22;33529;49.242;8.670;2022-12-08T00:19:40;2.20;99.90
47765;DHT22;33529;49.242;8.670;2022-12-08T00:22:07;2.10;99.90
47765;DHT22;33529;49.242;8.670;2022-12-08T00:24:37;2.10;99.90
47765;DHT22;33529;49.242;8.670;2022-12-08T00:27:06;2.10;99.90
47765;DHT22;33529;49.242;8.670;2022-12-08T00:29:33;2.10;99.90
47765;DHT22;33529;49.242;8.670;2022-12-08T00:32:00;2.10;99.90
47765;DHT22;33529;49.242;8.670;2022-12-08T00:34:27;2.10;99.90
47765;DHT22;33529;49.242;8.670;2022-12-08T00:36:54;2.10;99.90
47765;DHT22;33529;49.242;8.670;2022-12-08T00:39:21;2.10;99.90
47765;DHT22;33529;49.242;8.670;2022-12-08T00:41:48;2.10;99.90
47765;DHT22;33529;49.242;8.670;2022-12-08T00:44:33;2.10;99.90
47765;DHT22;33529;49.242;8.670;2022-12-08T00:47:00;2.10;99.90
47765;DHT22;33529;49.242;8.670;2022-12-08T00:49:26;2.10;99.90
47765;DHT22;33529;49.242;8.670;2022-12-08T00:51:56;2.10;99.90
47765;DHT22;33529;49.242;8.670;2022-12-08T00:54:23;2.10;99.90
47765;DHT22;33529;49.242;8.670;2022-12-08T00:56:50;2.00;99.90
47765;DHT22;33529;49.242;8.670;2022-12-08T00:59:17;2.00;99.90
47765;DHT22;33529;49.242;8.670;2022-12-08T01:01:45;2.00;99.90
47765;DHT22;33529;49.242;8.670;2022-12-08T01:04:14;1.90;99.90
47765;DHT22;33529;49.242;8.670;2022-12-08T01:06:41;1.80;99.90
47765;DHT22;33529;49.242;8.670;2022-12-08T01:09:09;1.80;99.90
47765;DHT22;33529;49.242;8.670;2022-12-08T01:11:36;1.80;99.90
47765;DHT22;33529;49.242;8.670;2022-12-08T01:14:03;1.80;99.90
47765;DHT22;33529;49.242;8.670;2022-12-08T01:16:33;1.70;99.90
47765;DHT22;33529;49.242;8.670;2022-12-08T01:19:00;1.70;99.90
47765;DHT22;33529;49.242;8.670;2022-12-08T01:21:27;1.60;99.90
47765;DHT22;33529;49.242;8.670;2022-12-08T01:23:54;1.60;99.90
47765;DHT22;33529;49.242;8.670;2022-12-08T01:26:21;1.60;99.90
47765;DHT22;33529;49.242;8.670;2022-12-08T01:28:48;1.50;99.90
47765;DHT22;33529;49.242;8.670;2022-12-08T01:31:18;1.50;99.90
47765;DHT22;33529;49.242;8.670;2022-12-08T01:33:45;1.60;99.90
47765;DHT22;33529;49.242;8.670;2022-12-08T01:36:20;1.70;99.90
47765;DHT22;33529;49.242;8.670;2022-12-08T01:38:47;1.60;99.90
47765;DHT22;33529;49.242;8.670;2022-12-08T01:41:16;1.70;99.90
47765;DHT22;33529;49.242;8.670;2022-12-08T01:46:38;1.70;99.90
47765;DHT22;33529;49.242;8.670;2022-12-08T01:51:48;1.70;99.90
47765;DHT22;33529;49.242;8.670;2022-12-08T01:54:17;1.80;99.90
47765;DHT22;33529;49.242;8.670;2022-12-08T01:56:51;1.80;99.90
47765;DHT22;33529;49.242;8.670;2022-12-08T01:59:21;1.80;99.90
47765;DHT22;33529;49.242;8.670;2022-12-08T02:01:50;1.70;99.90
47765;DHT22;33529;49.242;8.670;2022-12-08T02:04:17;1.70;99.90
47765;DHT22;33529;49.242;8.670;2022-12-08T02:06:45;1.80;99.90
47765;DHT22;33529;49.242;8.670;2022-12-08T02:09:13;1.80;99.90
47765;DHT22;33529;49.242;8.670;2022-12-08T02:11:40;1.80;99.90
47765;DHT22;33529;49.242;8.670;2022-12-08T02:14:07;1.80;99.90
47765;DHT22;33529;49.242;8.670;2022-12-08T02:22:41;1.70;99.90
47765;DHT22;33529;49.242;8.670;2022-12-08T02:28:08;1.70;99.90
47765;DHT22;33529;49.242;8.670;2022-12-08T02:36:16;1.60;99.90
47765;DHT22;33529;49.242;8.670;2022-12-08T02:44:32;1.60;99.90
47765;DHT22;33529;49.242;8.670;2022-12-08T02:47:18;1.50;99.90
47765;DHT22;33529;49.242;8.670;2022-12-08T02:49:45;1.50;99.90
47765;DHT22;33529;49.242;8.670;2022-12-08T02:54:48;1.50;99.90
47765;DHT22;33529;49.242;8.670;2022-12-08T03:02:38;1.50;99.90
47765;DHT22;33529;49.242;8.670;2022-12-08T03:05:22;1.50;99.90
47765;DHT22;33529;49.242;8.670;2022-12-08T03:08:05;1.60;99.90
47765;DHT22;33529;49.242;8.670;2022-12-08T03:10:42;1.70;99.90
47765;DHT22;33529;49.242;8.670;2022-12-08T03:13:13;1.70;99.90
47765;DHT22;33529;49.242;8.670;2022-12-08T03:15:44;1.70;99.90
47765;DHT22;33529;49.242;8.670;2022-12-08T03:18:14;1.80;99.90
47765;DHT22;33529;49.242;8.670;2022-12-08T03:20:42;1.80;99.90
47765;DHT22;33529;49.242;8.670;2022-12-08T03:23:12;1.80;99.90
47765;DHT22;33529;49.242;8.670;2022-12-08T03:25:45;1.80;99.90
47765;DHT22;33529;49.242;8.670;2022-12-08T03:28:14;1.80;99.90
47765;DHT22;33529;49.242;8.670;2022-12-08T03:30:43;1.80;99.90
47765;DHT22;33529;49.242;8.670;2022-12-08T03:33:32;1.70;99.90
47765;DHT22;33529;49.242;8.670;2022-12-08T03:36:03;1.70;99.90
47765;DHT22;33529;49.242;8.670;2022-12-08T03:38:43;1.70;99.90
47765;DHT22;33529;49.242;8.670;2022-12-08T03:41:10;1.70;99.90
47765;DHT22;33529;49.242;8.670;2022-12-08T03:43:57;1.70;99.90
47765;DHT22;33529;49.242;8.670;2022-12-08T03:46:27;1.70;99.90
47765;DHT22;33529;49.242;8.670;2022-12-08T03:48:53;1.80;99.90
47765;DHT22;33529;49.242;8.670;2022-12-08T03:51:20;1.70;99.90
47765;DHT22;33529;49.242;8.670;2022-12-08T03:53:48;1.70;99.90
47765;DHT22;33529;49.242;8.670;2022-12-08T03:56:29;1.70;99.90
47765;DHT22;33529;49.242;8.670;2022-12-08T03:58:56;1.80;99.90
47765;DHT22;33529;49.242;8.670;2022-12-08T04:01:23;1.80;99.90
47765;DHT22;33529;49.242;8.670;2022-12-08T04:03:50;1.80;99.90
47765;DHT22;33529;49.242;8.670;2022-12-08T04:06:18;1.90;99.90
47765;DHT22;33529;49.242;8.670;2022-12-08T04:08:45;1.90;99.90
47765;DHT22;33529;49.242;8.670;2022-12-08T04:11:12;1.90;99.90
47765;DHT22;33529;49.242;8.670;2022-12-08T04:13:41;1.90;99.90
47765;DHT22;33529;49.242;8.670;2022-12-08T04:16:13;1.90;99.90
47765;DHT22;33529;49.242;8.670;2022-12-08T04:18:40;1.90;99.90
47765;DHT22;33529;49.242;8.670;2022-12-08T04:21:07;1.90;99.90
47765;DHT22;33529;49.242;8.670;2022-12-08T04:23:33;1.90;99.90
47765;DHT22;33529;49.242;8.670;2022-12-08T04:26:00;1.90;99.90
47765;DHT22;33529;49.242;8.670;2022-12-08T04:28:27;2.00;99.90
47765;DHT22;33529;49.242;8.670;2022-12-08T04:30:55;2.00;99.90
47765;DHT22;33529;49.242;8.670;2022-12-08T04:33:22;2.00;99.90
47765;DHT22;33529;49.242;8.670;2022-12-08T04:35:49;2.00;99.90
47765;DHT22;33529;49.242;8.670;2022-12-08T04:38:15;2.00;99.90
47765;DHT22;33529;49.242;8.670;2022-12-08T04:40:42;2.00;99.90
47765;DHT22;33529;49.242;8.670;2022-12-08T04:43:09;2.00;99.90
47765;DHT22;33529;49.242;8.670;2022-12-08T04:45:38;2.10;99.90
47765;DHT22;33529;49.242;8.670;2022-12-08T04:48:05;2.10;99.90
47765;DHT22;33529;49.242;8.670;2022-12-08T04:50:32;2.10;99.90
47765;DHT22;33529;49.242;8.670;2022-12-08T04:52:59;2.10;99.90
47765;DHT22;33529;49.242;8.670;2022-12-08T04:55:26;2.10;99.90
47765;DHT22;33529;49.242;8.670;2022-12-08T04:57:54;2.10;99.90
47765;DHT22;33529;49.242;8.670;2022-12-08T05:00:21;2.10;99.90
47765;DHT22;33529;49.242;8.670;2022-12-08T05:02:47;2.10;99.90
47765;DHT22;33529;49.242;8.670;2022-12-08T05:05:14;2.20;99.90
47765;DHT22;33529;49.242;8.670;2022-12-08T05:07:41;2.10;99.90
47765;DHT22;33529;49.242;8.670;2022-12-08T05:10:08;2.10;99.90
47765;DHT22;33529;49.242;8.670;2022-12-08T05:12:35;2.20;99.90
47765;DHT22;33529;49.242;8.670;2022-12-08T05:15:05;2.10;99.90
47765;DHT22;33529;49.242;8.670;2022-12-08T05:17:32;2.10;99.90
47765;DHT22;33529;49.242;8.670;2022-12-08T05:19:58;2.20;99.90
47765;DHT22;33529;49.242;8.670;2022-12-08T05:22:25;2.20;99.90
47765;DHT22;33529;49.242;8.670;2022-12-08T05:24:55;2.10;99.90
47765;DHT22;33529;49.242;8.670;2022-12-08T05:27:22;2.20;99.90
47765;DHT22;33529;49.242;8.670;2022-12-08T05:29:49;2.10;99.90
47765;DHT22;33529;49.242;8.670;2022-12-08T05:32:16;2.20;99.90
47765;DHT22;33529;49.242;8.670;2022-12-08T05:34:42;2.20;99.90
47765;DHT22;33529;49.242;8.670;2022-12-08T05:37:09;2.20;99.90
47765;DHT22;33529;49.242;8.670;2022-12-08T05:39:36;2.20;99.90
47765;DHT22;33529;49.242;8.670;2022-12-08T05:42:03;2.20;99.90
47765;DHT22;33529;49.242;8.670;2022-12-08T05:44:30;2.20;99.90
47765;DHT22;33529;49.242;8.670;2022-12-08T05:46:57;2.30;99.90
47765;DHT22;33529;49.242;8.670;2022-12-08T05:49:24;2.30;99.90
47765;DHT22;33529;49.242;8.670;2022-12-08T05:51:50;2.20;99.90
47765;DHT22;33529;49.242;8.670;2022-12-08T05:54:17;2.20;99.90
47765;DHT22;33529;49.242;8.670;2022-12-08T05:56:44;2.30;99.90
47765;DHT22;33529;49.242;8.670;2022-12-08T05:59:11;2.30;99.90
47765;DHT22;33529;49.242;8.670;2022-12-08T06:01:37;2.40;99.90
47765;DHT22;33529;49.242;8.670;2022-12-08T06:04:04;2.30;99.90
47765;DHT22;33529;49.242;8.670;2022-12-08T06:06:33;2.40;99.90
47765;DHT22;33529;49.242;8.670;2022-12-08T06:09:04;2.40;99.90
47765;DHT22;33529;49.242;8.670;2022-12-08T06:11:32;2.40;99.90
47765;DHT22;33529;49.242;8.670;2022-12-08T06:13:59;2.30;99.90
47765;DHT22;33529;49.242;8.670;2022-12-08T06:16:27;2.30;99.90
47765;DHT22;33529;49.242;8.670;2022-12-08T06:18:55;2.30;99.90
47765;DHT22;33529;49.242;8.670;2022-12-08T06:21:22;2.30;99.90
47765;DHT22;33529;49.242;8.670;2022-12-08T06:23:50;2.30;99.90
47765;DHT22;33529;49.242;8.670;2022-12-08T06:26:18;2.40;99.90
47765;DHT22;33529;49.242;8.670;2022-12-08T06:28:45;2.40;99.90
47765;DHT22;33529;49.242;8.670;2022-12-08T06:31:20;2.40;99.90
47765;DHT22;33529;49.242;8.670;2022-12-08T06:33:47;2.40;99.90
47765;DHT22;33529;49.242;8.670;2022-12-08T06:36:16;2.40;99.90
47765;DHT22;33529;49.242;8.670;2022-12-08T06:38:43;2.30;99.90
47765;DHT22;33529;49.242;8.670;2022-12-08T06:41:11;2.30;99.90
47765;DHT22;33529;49.242;8.670;2022-12-08T06:43:38;2.20;99.90
47765;DHT22;33529;49.242;8.670;2022-12-08T06:46:08;2.30;99.90
47765;DHT22;33529;49.242;8.670;2022-12-08T06:48:36;2.30;99.90
47765;DHT22;33529;49.242;8.670;2022-12-08T06:51:13;2.30;99.90
47765;DHT22;33529;49.242;8.670;2022-12-08T06:53:40;2.30;99.90
47765;DHT22;33529;49.242;8.670;2022-12-08T06:56:08;2.30;99.90
47765;DHT22;33529;49.242;8.670;2022-12-08T06:58:35;2.30;99.90
47765;DHT22;33529;49.242;8.670;2022-12-08T07:01:07;2.40;99.90
47765;DHT22;33529;49.242;8.670;2022-12-08T07:03:35;2.30;99.90
47765;DHT22;33529;49.242;8.670;2022-12-08T07:06:04;2.30;99.90
47765;DHT22;33529;49.242;8.670;2022-12-08T07:08:32;2.20;99.90
47765;DHT22;33529;49.242;8.670;2022-12-08T07:11:05;2.20;99.90
47765;DHT22;33529;49.242;8.670;2022-12-08T07:13:32;2.30;99.90
47765;DHT22;33529;49.242;8.670;2022-12-08T07:15:59;2.30;99.90
47765;DHT22;33529;49.242;8.670;2022-12-08T07:18:26;2.30;99.90
47765;DHT22;33529;49.242;8.670;2022-12-08T07:20:52;2.20;99.90
47765;DHT22;33529;49.242;8.670;2022-12-08T07:23:19;2.30;99.90
47765;DHT22;33529;49.242;8.670;2022-12-08T07:25:46;2.20;99.90
47765;DHT22;33529;49.242;8.670;2022-12-08T07:28:13;2.20;99.90
47765;DHT22;33529;49.242;8.670;2022-12-08T07:30:39;2.20;99.90
47765;DHT22;33529;49.242;8.670;2022-12-08T07:33:06;2.30;99.90
47765;DHT22;33529;49.242;8.670;2022-12-08T07:35:33;2.20;99.90
47765;DHT22;33529;49.242;8.670;2022-12-08T07:38:03;2.10;99.90
47765;DHT22;33529;49.242;8.670;2022-12-08T07:40:30;2.20;99.90
47765;DHT22;33529;49.242;8.670;2022-12-08T07:42:57;2.20;99.90
47765;DHT22;33529;49.242;8.670;2022-12-08T07:45:24;2.20;99.90
47765;DHT22;33529;49.242;8.670;2022-12-08T07:47:57;2.30;99.90
47765;DHT22;33529;49.242;8.670;2022-12-08T07:50:24;2.20;99.90
47765;DHT22;33529;49.242;8.670;2022-12-08T07:52:50;2.20;99.90
47765;DHT22;33529;49.242;8.670;2022-12-08T07:55:17;2.10;99.90
47765;DHT22;33529;49.242;8.670;2022-12-08T07:57:44;2.20;99.90
47765;DHT22;33529;49.242;8.670;2022-12-08T08:00:11;2.20;99.90
47765;DHT22;33529;49.242;8.670;2022-12-08T08:02:38;2.20;99.90
47765;DHT22;33529;49.242;8.670;2022-12-08T08:05:05;2.30;99.90
47765;DHT22;33529;49.242;8.670;2022-12-08T08:07:32;2.20;99.90
47765;DHT22;33529;49.242;8.670;2022-12-08T08:09:59;2.30;99.90
47765;DHT22;33529;49.242;8.670;2022-12-08T08:12:26;2.30;99.90
47765;DHT22;33529;49.242;8.670;2022-12-08T08:15:03;2.40;99.90
47765;DHT22;33529;49.242;8.670;2022-12-08T08:17:31;2.30;99.90
47765;DHT22;33529;49.242;8.670;2022-12-08T08:19:58;2.40;99.90
47765;DHT22;33529;49.242;8.670;2022-12-08T08:22:25;2.50;99.90
47765;DHT22;33529;49.242;8.670;2022-12-08T08:24:53;2.40;99.90
47765;DHT22;33529;49.242;8.670;2022-12-08T08:27:20;2.50;99.90
47765;DHT22;33529;49.242;8.670;2022-12-08T08:29:46;2.50;99.90
47765;DHT22;33529;49.242;8.670;2022-12-08T08:32:13;2.50;99.90
47765;DHT22;33529;49.242;8.670;2022-12-08T08:34:40;2.60;99.90
47765;DHT22;33529;49.242;8.670;2022-12-08T08:37:07;2.60;99.90
47765;DHT22;33529;49.242;8.670;2022-12-08T08:39:33;2.60;99.90
47765;DHT22;33529;49.242;8.670;2022-12-08T08:42:02;2.70;99.90
47765;DHT22;33529;49.242;8.670;2022-12-08T08:44:28;2.80;99.90
47765;DHT22;33529;49.242;8.670;2022-12-08T08:46:55;2.80;99.90
47765;DHT22;33529;49.242;8.670;2022-12-08T08:49:22;2.80;99.90
47765;DHT22;33529;49.242;8.670;2022-12-08T08:51:49;2.80;99.90
47765;DHT22;33529;49.242;8.670;2022-12-08T08:54:16;2.90;99.90
47765;DHT22;33529;49.242;8.670;2022-12-08T08:56:43;2.90;99.90
47765;DHT22;33529;49.242;8.670;2022-12-08T08:59:10;3.00;99.90
47765;DHT22;33529;49.242;8.670;2022-12-08T09:01:37;2.90;99.90
47765;DHT22;33529;49.242;8.670;2022-12-08T09:04:04;3.00;99.90
47765;DHT22;33529;49.242;8.670;2022-12-08T09:06:31;3.10;99.90
47765;DHT22;33529;49.242;8.670;2022-12-08T09:08:57;3.10;99.90
47765;DHT22;33529;49.242;8.670;2022-12-08T09:11:24;3.20;99.90
47765;DHT22;33529;49.242;8.670;2022-12-08T09:13:52;3.20;99.90
47765;DHT22;33529;49.242;8.670;2022-12-08T09:16:20;3.10;99.90
47765;DHT22;33529;49.242;8.670;2022-12-08T09:18:47;3.10;99.90
47765;DHT22;33529;49.242;8.670;2022-12-08T09:21:19;3.10;99.90
47765;DHT22;33529;49.242;8.670;2022-12-08T09:23:49;3.20;99.90
47765;DHT22;33529;49.242;8.670;2022-12-08T09:26:16;3.20;99.90
47765;DHT22;33529;49.242;8.670;2022-12-08T09:28:43;3.10;99.90
47765;DHT22;33529;49.242;8.670;2022-12-08T09:31:13;3.20;99.90
47765;DHT22;33529;49.242;8.670;2022-12-08T09:33:40;3.30;99.90
47765;DHT22;33529;49.242;8.670;2022-12-08T09:36:08;3.40;99.90
47765;DHT22;33529;49.242;8.670;2022-12-08T09:38:38;3.40;99.90
47765;DHT22;33529;49.242;8.670;2022-12-08T09:41:19;3.50;99.90
47765;DHT22;33529;49.242;8.670;2022-12-08T09:46:46;3.50;99.90
47765;DHT22;33529;49.242;8.670;2022-12-08T09:49:16;3.50;99.90
47765;DHT22;33529;49.242;8.670;2022-12-08T09:51:44;3.50;99.90
47765;DHT22;33529;49.242;8.670;2022-12-08T09:54:33;3.50;99.90
47765;DHT22;33529;49.242;8.670;2022-12-08T09:57:05;3.60;99.90
47765;DHT22;33529;49.242;8.670;2022-12-08T09:59:34;3.70;99.90
47765;DHT22;33529;49.242;8.670;2022-12-08T10:02:02;3.60;99.90
47765;DHT22;33529;49.242;8.670;2022-12-08T10:04:35;3.50;99.90
47765;DHT22;33529;49.242;8.670;2022-12-08T10:07:16;3.50;99.90
47765;DHT22;33529;49.242;8.670;2022-12-08T10:10:18;3.50;99.90
47765;DHT22;33529;49.242;8.670;2022-12-08T10:12:53;3.60;99.90
47765;DHT22;33529;49.242;8.670;2022-12-08T10:18:31;3.70;99.90
47765;DHT22;33529;49.242;8.670;2022-12-08T10:21:14;3.70;99.90
47765;DHT22;33529;49.242;8.670;2022-12-08T10:23:44;3.70;99.90
47765;DHT22;33529;49.242;8.670;2022-12-08T10:26:14;3.60;99.90
47765;DHT22;33529;49.242;8.670;2022-12-08T10:28:41;3.50;99.90
47765;DHT22;33529;49.242;8.670;2022-12-08T10:31:19;3.60;99.90
47765;DHT22;33529;49.242;8.670;2022-12-08T10:33:51;3.70;99.90
47765;DHT22;33529;49.242;8.670;2022-12-08T10:36:19;3.70;99.90
47765;DHT22;33529;49.242;8.670;2022-12-08T10:38:46;3.80;99.90
47765;DHT22;33529;49.242;8.670;2022-12-08T10:41:13;3.80;99.90
47765;DHT22;33529;49.242;8.670;2022-12-08T10:43:49;3.80;99.90
47765;DHT22;33529;49.242;8.670;2022-12-08T10:46:23;3.80;99.90
47765;DHT22;33529;49.242;8.670;2022-12-08T10:49:08;3.90;99.90
47765;DHT22;33529;49.242;8.670;2022-12-08T10:51:40;3.90;99.90
47765;DHT22;33529;49.242;8.670;2022-12-08T10:54:28;4.00;99.90
47765;DHT22;33529;49.242;8.670;2022-12-08T10:56:56;4.10;99.90
47765;DHT22;33529;49.242;8.670;2022-12-08T10:59:23;4.10;99.90
47765;DHT22;33529;49.242;8.670;2022-12-08T11:01:55;4.00;99.90
47765;DHT22;33529;49.242;8.670;2022-12-08T11:04:33;4.10;99.90
47765;DHT22;33529;49.242;8.670;2022-12-08T11:07:06;4.30;99.90
47765;DHT22;33529;49.242;8.670;2022-12-08T11:12:14;4.50;99.90
47765;DHT22;33529;49.242;8.670;2022-12-08T11:27:47;4.50;99.90
47765;DHT22;33529;49.242;8.670;2022-12-08T11:30:20;4.50;99.90
47765;DHT22;33529;49.242;8.670;2022-12-08T11:32:56;4.40;99.90
47765;DHT22;33529;49.242;8.670;2022-12-08T11:35:33;4.40;99.90
47765;DHT22;33529;49.242;8.670;2022-12-08T11:38:12;4.40;99.90
47765;DHT22;33529;49.242;8.670;2022-12-08T11:40:51;4.50;99.90
47765;DHT22;33529;49.242;8.670;2022-12-08T11:46:00;4.60;99.90
47765;DHT22;33529;49.242;8.670;2022-12-08T11:48:34;4.70;99.90
47765;DHT22;33529;49.242;8.670;2022-12-08T11:51:27;4.70;99.90
47765;DHT22;33529;49.242;8.670;2022-12-08T11:56:48;4.70;99.90
47765;DHT22;33529;49.242;8.670;2022-12-08T12:01:59;5.00;99.90
47765;DHT22;33529;49.242;8.670;2022-12-08T12:04:41;5.00;99.90
47765;DHT22;33529;49.242;8.670;2022-12-08T12:07:20;5.00;99.90
47765;DHT22;33529;49.242;8.670;2022-12-08T12:10:16;5.10;99.90
47765;DHT22;33529;49.242;8.670;2022-12-08T12:18:15;5.30;99.90
47765;DHT22;33529;49.242;8.670;2022-12-08T12:20:58;5.30;99.90
47765;DHT22;33529;49.242;8.670;2022-12-08T12:23:40;5.30;99.90
47765;DHT22;33529;49.242;8.670;2022-12-08T12:26:17;5.20;99.90
47765;DHT22;33529;49.242;8.670;2022-12-08T12:28:48;5.20;99.90
47765;DHT22;33529;49.242;8.670;2022-12-08T12:31:22;5.20;99.90
47765;DHT22;33529;49.242;8.670;2022-12-08T12:33:52;5.20;99.90
47765;DHT22;33529;49.242;8.670;2022-12-08T12:36:19;5.20;99.90
47765;DHT22;33529;49.242;8.670;2022-12-08T12:38:49;5.20;99.90
47765;DHT22;33529;49.242;8.670;2022-12-08T12:57:21;5.30;99.90
47765;DHT22;33529;49.242;8.670;2022-12-08T13:05:27;5.10;99.90
47765;DHT22;33529;49.242;8.670;2022-12-08T13:08:23;5.00;99.90
47765;DHT22;33529;49.242;8.670;2022-12-08T13:11:06;5.00;99.90
47765;DHT22;33529;49.242;8.670;2022-12-08T13:13:36;5.00;99.90
47765;DHT22;33529;49.242;8.670;2022-12-08T13:16:13;5.00;99.90
47765;DHT22;33529;49.242;8.670;2022-12-08T13:18:51;5.00;99.90
47765;DHT22;33529;49.242;8.670;2022-12-08T13:21:20;5.10;99.90
47765;DHT22;33529;49.242;8.670;2022-12-08T13:26:44;5.00;99.90
47765;DHT22;33529;49.242;8.670;2022-12-08T13:29:24;5.10;99.90
47765;DHT22;33529;49.242;8.670;2022-12-08T13:31:56;5.10;99.90
47765;DHT22;33529;49.242;8.670;2022-12-08T13:34:39;5.10;99.90
47765;DHT22;33529;49.242;8.670;2022-12-08T13:45:21;5.00;99.90
47765;DHT22;33529;49.242;8.670;2022-12-08T13:48:17;5.00;99.90
47765;DHT22;33529;49.242;8.670;2022-12-08T13:51:17;5.10;99.90
47765;DHT22;33529;49.242;8.670;2022-12-08T13:54:23;5.10;99.90
47765;DHT22;33529;49.242;8.670;2022-12-08T13:57:24;5.10;99.90
47765;DHT22;33529;49.242;8.670;2022-12-08T13:59:52;5.20;99.90
47765;DHT22;33529;49.242;8.670;2022-12-08T14:02:28;5.20;99.90
47765;DHT22;33529;49.242;8.670;2022-12-08T14:04:56;5.20;99.90
47765;DHT22;33529;49.242;8.670;2022-12-08T14:07:43;5.10;99.90
47765;DHT22;33529;49.242;8.670;2022-12-08T14:10:19;5.00;99.90
47765;DHT22;33529;49.242;8.670;2022-12-08T14:12:53;4.70;99.90
47765;DHT22;33529;49.242;8.670;2022-12-08T14:15:21;4.60;99.90
47765;DHT22;33529;49.242;8.670;2022-12-08T14:17:55;4.60;99.90
47765;DHT22;33529;49.242;8.670;2022-12-08T14:20:28;4.40;99.90
47765;DHT22;33529;49.242;8.670;2022-12-08T14:22:56;4.20;99.90
47765;DHT22;33529;49.242;8.670;2022-12-08T14:25:26;4.10;99.90
47765;DHT22;33529;49.242;8.670;2022-12-08T14:28:02;4.00;99.90
47765;DHT22;33529;49.242;8.670;2022-12-08T14:30:33;4.00;99.90
47765;DHT22;33529;49.242;8.670;2022-12-08T14:33:03;4.00;99.90
47765;DHT22;33529;49.242;8.670;2022-12-08T14:35:35;3.90;99.90
47765;DHT22;33529;49.242;8.670;2022-12-08T14:38:05;3.90;99.90
47765;DHT22;33529;49.242;8.670;2022-12-08T14:40:39;3.90;99.90
47765;DHT22;33529;49.242;8.670;2022-12-08T14:45:35;3.90;99.90
47765;DHT22;33529;49.242;8.670;2022-12-08T14:51:12;4.00;99.90
47765;DHT22;33529;49.242;8.670;2022-12-08T14:56:41;4.00;99.90
47765;DHT22;33529;49.242;8.670;2022-12-08T14:59:29;4.00;99.90
47765;DHT22;33529;49.242;8.670;2022-12-08T15:04:43;4.00;99.90
47765;DHT22;33529;49.242;8.670;2022-12-08T15:07:16;4.00;99.90
47765;DHT22;33529;49.242;8.670;2022-12-08T15:09:46;4.00;99.90
47765;DHT22;33529;49.242;8.670;2022-12-08T15:12:18;4.00;99.90
47765;DHT22;33529;49.242;8.670;2022-12-08T15:14:57;4.00;99.90
47765;DHT22;33529;49.242;8.670;2022-12-08T15:23:00;3.90;99.90
47765;DHT22;33529;49.242;8.670;2022-12-08T15:25:27;3.90;99.90
47765;DHT22;33529;49.242;8.670;2022-12-08T15:27:54;3.80;99.90
47765;DHT22;33529;49.242;8.670;2022-12-08T15:30:24;3.80;99.90
47765;DHT22;33529;49.242;8.670;2022-12-08T15:32:52;3.70;99.90
47765;DHT22;33529;49.242;8.670;2022-12-08T15:35:19;3.80;99.90
47765;DHT22;33529;49.242;8.670;2022-12-08T15:37:46;3.80;99.90
47765;DHT22;33529;49.242;8.670;2022-12-08T15:40:19;3.70;99.90
47765;DHT22;33529;49.242;8.670;2022-12-08T15:42:46;3.70;99.90
47765;DHT22;33529;49.242;8.670;2022-12-08T15:45:14;3.70;99.90
47765;DHT22;33529;49.242;8.670;2022-12-08T15:47:42;3.70;99.90
47765;DHT22;33529;49.242;8.670;2022-12-08T15:50:19;3.70;99.90
47765;DHT22;33529;49.242;8.670;2022-12-08T15:52:48;3.60;99.90
47765;DHT22;33529;49.242;8.670;2022-12-08T15:55:17;3.60;99.90
47765;DHT22;33529;49.242;8.670;2022-12-08T15:57:47;3.60;99.90
47765;DHT22;33529;49.242;8.670;2022-12-08T16:00:36;3.60;99.90
47765;DHT22;33529;49.242;8.670;2022-12-08T16:03:23;3.60;99.90
47765;DHT22;33529;49.242;8.670;2022-12-08T16:06:18;3.60;99.90
47765;DHT22;33529;49.242;8.670;2022-12-08T16:09:18;3.60;99.90
47765;DHT22;33529;49.242;8.670;2022-12-08T16:11:45;3.60;99.90
47765;DHT22;33529;49.242;8.670;2022-12-08T16:14:34;3.60;99.90
47765;DHT22;33529;49.242;8.670;2022-12-08T16:17:21;3.60;99.90
47765;DHT22;33529;49.242;8.670;2022-12-08T16:19:48;3.60;99.90
47765;DHT22;33529;49.242;8.670;2022-12-08T16:22:21;3.60;99.90
47765;DHT22;33529;49.242;8.670;2022-12-08T16:25:10;3.60;99.90
47765;DHT22;33529;49.242;8.670;2022-12-08T16:27:51;3.60;99.90
47765;DHT22;33529;49.242;8.670;2022-12-08T16:30:38;3.60;99.90
47765;DHT22;33529;49.242;8.670;2022-12-08T16:33:05;3.60;99.90
47765;DHT22;33529;49.242;8.670;2022-12-08T16:35:32;3.60;99.90
47765;DHT22;33529;49.242;8.670;2022-12-08T16:37:59;3.60;99.90
47765;DHT22;33529;49.242;8.670;2022-12-08T16:40:26;3.60;99.90
47765;DHT22;33529;49.242;8.670;2022-12-08T16:42:52;3.60;99.90
47765;DHT22;33529;49.242;8.670;2022-12-08T16:45:29;3.60;99.90
47765;DHT22;33529;49.242;8.670;2022-12-08T16:47:59;3.50;99.90
47765;DHT22;33529;49.242;8.670;2022-12-08T16:50:32;3.50;99.90
47765;DHT22;33529;49.242;8.670;2022-12-08T16:53:01;3.60;99.90
47765;DHT22;33529;49.242;8.670;2022-12-08T16:55:28;3.60;99.90
47765;DHT22;33529;49.242;8.670;2022-12-08T16:57:56;3.50;99.90
47765;DHT22;33529;49.242;8.670;2022-12-08T17:00:25;3.50;99.90
47765;DHT22;33529;49.242;8.670;2022-12-08T17:02:53;3.50;99.90
47765;DHT22;33529;49.242;8.670;2022-12-08T17:05:21;3.50;99.90
47765;DHT22;33529;49.242;8.670;2022-12-08T17:07:50;3.50;99.90
47765;DHT22;33529;49.242;8.670;2022-12-08T17:10:22;3.50;99.90
47765;DHT22;33529;49.242;8.670;2022-12-08T17:12:49;3.50;99.90
47765;DHT22;33529;49.242;8.670;2022-12-08T17:15:17;3.50;99.90
47765;DHT22;33529;49.242;8.670;2022-12-08T17:17:45;3.50;99.90
47765;DHT22;33529;49.242;8.670;2022-12-08T17:20:14;3.60;99.90
47765;DHT22;33529;49.242;8.670;2022-12-08T17:22:41;3.60;99.90
47765;DHT22;33529;49.242;8.670;2022-12-08T17:25:08;3.60;99.90
47765;DHT22;33529;49.242;8.670;2022-12-08T17:27:35;3.50;99.90
47765;DHT22;33529;49.242;8.670;2022-12-08T17:30:07;3.50;99.90
47765;DHT22;33529;49.242;8.670;2022-12-08T17:32:36;3.50;99.90
47765;DHT22;33529;49.242;8.670;2022-12-08T17:35:03;3.50;99.90
47765;DHT22;33529;49.242;8.670;2022-12-08T17:37:31;3.50;99.90
47765;DHT22;33529;49.242;8.670;2022-12-08T17:39:57;3.50;99.90
47765;DHT22;33529;49.242;8.670;2022-12-08T17:42:24;3.50;99.90
47765;DHT22;33529;49.242;8.670;2022-12-08T17:44:53;3.50;99.90
47765;DHT22;33529;49.242;8.670;2022-12-08T17:47:20;3.50;99.90
47765;DHT22;33529;49.242;8.670;2022-12-08T17:49:46;3.50;99.90
47765;DHT22;33529;49.242;8.670;2022-12-08T17:52:13;3.50;99.90
47765;DHT22;33529;49.242;8.670;2022-12-08T17:54:40;3.50;99.90
47765;DHT22;33529;49.242;8.670;2022-12-08T17:57:07;3.40;99.90
47765;DHT22;33529;49.242;8.670;2022-12-08T17:59:34;3.40;99.90
47765;DHT22;33529;49.242;8.670;2022-12-08T18:02:01;3.40;99.90
47765;DHT22;33529;49.242;8.670;2022-12-08T18:04:28;3.30;99.90
47765;DHT22;33529;49.242;8.670;2022-12-08T18:06:54;3.40;99.90